createdAt,value
2018-06-02T00:00:45.387Z,99.90
2018-06-02T00:03:14.356Z,99.90
2018-06-02T00:05:43.160Z,99.90
2018-06-02T00:08:12.854Z,99.90
2018-06-02T00:10:41.607Z,99.90
2018-06-02T00:13:10.412Z,99.90
2018-06-02T00:15:39.681Z,99.90
2018-06-02T00:18:09.567Z,99.90
2018-06-02T00:20:38.180Z,99.90
2018-06-02T00:23:06.975Z,99.90
2018-06-02T00:25:36.474Z,99.90
2018-06-02T00:28:06.899Z,99.90
2018-06-02T00:30:36.244Z,99.90
2018-06-02T00:33:05.858Z,99.90
2018-06-02T00:35:34.829Z,99.90
2018-06-02T00:38:03.929Z,99.90
2018-06-02T00:40:32.702Z,99.90
2018-06-02T00:43:01.459Z,99.90
2018-06-02T00:45:30.268Z,99.90
2018-06-02T00:47:59.183Z,99.90
2018-06-02T00:50:27.994Z,99.90
2018-06-02T00:52:56.753Z,99.90
2018-06-02T00:55:25.919Z,99.90
2018-06-02T00:57:55.218Z,99.90
2018-06-02T01:00:25.053Z,99.90
2018-06-02T01:02:54.467Z,99.90
2018-06-02T01:05:23.934Z,99.90
2018-06-02T01:07:52.735Z,99.90
2018-06-02T01:10:21.645Z,99.90
2018-06-02T01:12:50.473Z,99.90
2018-06-02T01:15:20.047Z,99.90
2018-06-02T01:17:49.506Z,99.90
2018-06-02T01:20:19.353Z,99.90
2018-06-02T01:22:48.347Z,99.90
2018-06-02T01:25:18.124Z,99.90
2018-06-02T01:27:47.774Z,99.90
2018-06-02T01:30:17.242Z,99.90
2018-06-02T01:32:45.942Z,99.90
2018-06-02T01:35:14.742Z,99.90
2018-06-02T01:37:43.568Z,99.90
2018-06-02T01:40:12.305Z,99.90
2018-06-02T01:42:41.112Z,99.90
2018-06-02T01:45:09.891Z,99.90
2018-06-02T01:47:38.612Z,99.90
2018-06-02T01:50:07.445Z,99.90
2018-06-02T01:52:36.419Z,99.90
2018-06-02T01:55:06.267Z,99.90
2018-06-02T01:57:35.543Z,99.90
2018-06-02T02:00:04.921Z,99.90
2018-06-02T02:02:33.611Z,99.90
2018-06-02T02:05:02.429Z,99.90
2018-06-02T02:07:31.416Z,99.90
2018-06-02T02:10:00.976Z,99.90
2018-06-02T02:12:31.213Z,99.90
2018-06-02T02:14:59.768Z,99.90
2018-06-02T02:17:28.516Z,99.90
2018-06-02T02:19:58.030Z,99.90
2018-06-02T02:22:27.529Z,99.90
2018-06-02T02:24:57.217Z,99.90
2018-06-02T02:27:26.904Z,99.90
2018-06-02T02:29:56.571Z,99.90
2018-06-02T02:32:25.383Z,99.90
2018-06-02T02:34:54.185Z,99.90
2018-06-02T02:37:23.101Z,99.90
2018-06-02T02:39:52.009Z,99.90
2018-06-02T02:42:20.735Z,99.90
2018-06-02T02:44:49.502Z,99.90
2018-06-02T02:47:18.940Z,99.90
2018-06-02T02:49:47.720Z,99.90
2018-06-02T02:52:17.221Z,99.90
2018-06-02T02:54:46.791Z,99.90
2018-06-02T02:57:16.923Z,99.90
2018-06-02T02:59:46.589Z,99.90
2018-06-02T03:02:15.251Z,99.90
2018-06-02T03:04:44.106Z,99.90
2018-06-02T03:07:13.072Z,99.90
2018-06-02T03:09:42.539Z,99.90
2018-06-02T03:12:11.359Z,99.90
2018-06-02T03:14:39.963Z,99.90
2018-06-02T03:17:08.769Z,99.90
2018-06-02T03:19:37.585Z,99.90
2018-06-02T03:22:06.552Z,99.90
2018-06-02T03:24:35.793Z,99.90
2018-06-02T03:27:05.935Z,99.90
2018-06-02T03:29:35.281Z,99.90
2018-06-02T03:32:04.034Z,99.90
2018-06-02T03:34:32.840Z,99.90
2018-06-02T03:37:01.542Z,99.90
2018-06-02T03:39:30.313Z,99.90
2018-06-02T03:41:59.027Z,99.90
2018-06-02T03:44:27.611Z,99.90
2018-06-02T03:46:57.057Z,99.90
2018-06-02T03:49:25.849Z,99.90
2018-06-02T03:51:54.699Z,99.90
2018-06-02T03:54:24.249Z,99.90
2018-06-02T03:56:53.929Z,99.90
2018-06-02T03:59:23.060Z,99.90
2018-06-02T04:01:51.748Z,99.90
2018-06-02T04:04:21.040Z,99.90
2018-06-02T04:06:50.389Z,99.90
2018-06-02T04:09:19.147Z,99.90
2018-06-02T04:11:47.908Z,99.90
2018-06-02T04:14:17.643Z,99.90
2018-06-02T04:16:46.277Z,99.90
2018-06-02T04:19:15.044Z,99.90
2018-06-02T04:21:44.593Z,99.90
2018-06-02T04:24:14.076Z,99.90
2018-06-02T04:26:44.154Z,99.90
2018-06-02T04:29:12.975Z,99.90
2018-06-02T04:31:41.753Z,99.90
2018-06-02T04:34:11.791Z,99.90
2018-06-02T04:36:41.146Z,99.90
2018-06-02T04:39:10.064Z,99.90
2018-06-02T04:41:38.815Z,99.90
2018-06-02T04:44:07.568Z,99.90
2018-06-02T04:46:36.246Z,99.90
2018-06-02T04:49:05.803Z,99.90
2018-06-02T04:51:34.512Z,99.90
2018-06-02T04:54:04.265Z,99.90
2018-06-02T04:56:33.454Z,99.90
2018-06-02T04:59:02.380Z,99.90
2018-06-02T05:01:30.913Z,99.90
2018-06-02T05:03:59.445Z,99.90
2018-06-02T05:06:29.112Z,99.90
2018-06-02T05:08:57.869Z,99.90
2018-06-02T05:11:26.583Z,99.90
2018-06-02T05:13:55.339Z,99.90
2018-06-02T05:16:24.969Z,99.90
2018-06-02T05:18:53.673Z,99.90
2018-06-02T05:21:22.934Z,99.90
2018-06-02T05:23:52.016Z,99.90
2018-06-02T05:26:21.472Z,99.90
2018-06-02T05:28:50.439Z,99.90
2018-06-02T05:31:20.387Z,99.90
2018-06-02T05:33:49.115Z,99.90
2018-06-02T05:36:18.001Z,99.90
2018-06-02T05:38:46.776Z,99.90
2018-06-02T05:41:16.292Z,99.90
2018-06-02T05:43:45.158Z,99.90
2018-06-02T05:46:14.988Z,99.90
2018-06-02T05:48:43.825Z,99.90
2018-06-02T05:51:13.529Z,99.90
2018-06-02T05:53:42.960Z,99.90
2018-06-02T05:56:12.512Z,99.90
2018-06-02T05:58:42.443Z,99.90
2018-06-02T06:01:12.029Z,99.90
2018-06-02T06:03:40.846Z,99.90
2018-06-02T06:06:09.737Z,99.90
2018-06-02T06:08:38.682Z,99.90
2018-06-02T06:11:09.790Z,99.90
2018-06-02T06:13:38.723Z,99.90
2018-06-02T06:16:08.690Z,99.90
2018-06-02T06:18:37.803Z,99.90
2018-06-02T06:21:07.791Z,99.90
2018-06-02T06:23:37.393Z,99.90
2018-06-02T06:26:06.184Z,99.90
2018-06-02T06:28:35.196Z,99.90
2018-06-02T06:31:04.006Z,99.90
2018-06-02T06:33:33.329Z,99.90
2018-06-02T06:36:02.025Z,99.90
2018-06-02T06:38:30.962Z,99.90
2018-06-02T06:40:59.764Z,99.90
2018-06-02T06:43:29.952Z,99.90
2018-06-02T06:45:59.730Z,99.60
2018-06-02T06:48:29.877Z,99.50
2018-06-02T06:50:59.905Z,98.30
2018-06-02T06:53:29.114Z,97.00
2018-06-02T06:55:58.046Z,96.50
2018-06-02T06:58:26.703Z,96.00
2018-06-02T07:00:55.710Z,96.30
2018-06-02T07:03:24.686Z,95.50
2018-06-02T07:05:53.504Z,94.30
2018-06-02T07:08:22.300Z,93.30
2018-06-02T07:10:51.078Z,91.50
2018-06-02T07:13:20.863Z,90.00
2018-06-02T07:15:50.675Z,89.20
2018-06-02T07:18:20.659Z,86.10
2018-06-02T07:20:50.533Z,83.20
2018-06-02T07:23:19.559Z,84.70
2018-06-02T07:25:48.259Z,87.20
2018-06-02T07:28:17.128Z,87.40
2018-06-02T07:30:46.709Z,84.40
2018-06-02T07:33:15.413Z,83.60
2018-06-02T07:35:45.053Z,83.20
2018-06-02T07:38:14.062Z,80.30
2018-06-02T07:40:42.755Z,78.70
2018-06-02T07:43:11.784Z,76.50
2018-06-02T07:45:41.127Z,74.80
2018-06-02T07:48:11.402Z,68.30
2018-06-02T07:50:42.665Z,67.50
2018-06-02T07:53:11.603Z,67.50
2018-06-02T07:55:41.438Z,67.30
2018-06-02T07:58:10.272Z,66.50
2018-06-02T08:00:39.083Z,66.30
2018-06-02T08:03:07.900Z,64.30
2018-06-02T08:05:36.716Z,63.40
2018-06-02T08:08:05.773Z,54.90
2018-06-02T08:10:35.149Z,58.90
2018-06-02T08:13:04.341Z,59.60
2018-06-02T08:15:34.695Z,58.00
2018-06-02T08:18:05.788Z,56.80
2018-06-02T08:20:35.835Z,58.10
2018-06-02T08:23:05.399Z,59.60
2018-06-02T08:25:34.876Z,60.80
2018-06-02T08:28:04.051Z,61.70
2018-06-02T08:30:34.076Z,61.00
2018-06-02T08:33:04.125Z,59.30
2018-06-02T08:35:33.055Z,57.70
2018-06-02T08:38:01.976Z,56.70
2018-06-02T08:40:30.669Z,56.20
2018-06-02T08:42:59.658Z,55.40
2018-06-02T08:45:30.326Z,53.90
2018-06-02T08:47:59.349Z,53.80
2018-06-02T08:50:28.834Z,51.00
2018-06-02T08:52:57.602Z,51.00
2018-06-02T08:55:26.894Z,51.50
2018-06-02T08:57:56.235Z,50.10
2018-06-02T09:00:25.329Z,50.10
2018-06-02T09:02:54.874Z,48.20
2018-06-02T09:05:23.762Z,48.10
2018-06-02T09:07:53.940Z,49.70
2018-06-02T09:10:23.154Z,49.70
2018-06-02T09:12:52.488Z,50.90
2018-06-02T09:15:22.611Z,50.60
2018-06-02T09:17:52.372Z,49.70
2018-06-02T09:20:21.266Z,48.50
2018-06-02T09:22:51.769Z,47.90
2018-06-02T09:25:22.215Z,51.30
2018-06-02T09:27:51.999Z,51.00
2018-06-02T09:30:22.102Z,51.00
2018-06-02T09:32:51.047Z,50.40
2018-06-02T09:35:20.234Z,52.00
2018-06-02T09:37:50.182Z,51.30
2018-06-02T09:40:19.919Z,50.10
2018-06-02T09:42:49.375Z,49.70
2018-06-02T09:45:18.701Z,50.60
2018-06-02T09:47:47.730Z,51.10
2018-06-02T09:50:16.607Z,49.50
2018-06-02T09:52:45.519Z,49.80
2018-06-02T09:55:14.383Z,50.30
2018-06-02T09:57:43.067Z,50.20
2018-06-02T10:00:11.873Z,51.40
2018-06-02T10:02:41.584Z,51.50
2018-06-02T10:05:10.186Z,50.10
2018-06-02T10:07:39.997Z,50.50
2018-06-02T10:10:10.131Z,47.50
2018-06-02T10:12:40.802Z,48.50
2018-06-02T10:15:10.680Z,46.70
2018-06-02T10:17:39.659Z,46.10
2018-06-02T10:20:08.580Z,41.50
2018-06-02T10:22:37.171Z,42.10
2018-06-02T10:25:06.013Z,44.70
2018-06-02T10:27:35.863Z,42.60
2018-06-02T10:30:05.250Z,41.10
2018-06-02T10:32:35.073Z,40.40
2018-06-02T10:35:04.061Z,42.00
2018-06-02T10:37:34.641Z,42.40
2018-06-02T10:40:04.089Z,42.30
2018-06-02T10:42:33.157Z,42.90
2018-06-02T10:45:02.016Z,44.10
2018-06-02T10:47:30.780Z,44.60
2018-06-02T10:49:59.487Z,43.50
2018-06-02T10:52:28.155Z,45.10
2018-06-02T10:54:57.956Z,44.80
2018-06-02T10:57:26.805Z,44.30
2018-06-02T10:59:55.685Z,46.80
2018-06-02T11:02:24.581Z,48.20
2018-06-02T11:04:53.476Z,47.20
2018-06-02T11:07:24.062Z,46.20
2018-06-02T11:09:53.826Z,46.20
2018-06-02T11:12:23.818Z,44.80
2018-06-02T11:14:53.458Z,45.40
2018-06-02T11:17:22.220Z,44.20
2018-06-02T11:19:51.952Z,49.70
2018-06-02T11:22:22.338Z,49.30
2018-06-02T11:24:51.124Z,49.30
2018-06-02T11:27:20.604Z,47.10
2018-06-02T11:29:49.782Z,46.50
2018-06-02T11:32:20.130Z,46.70
2018-06-02T11:34:49.757Z,48.70
2018-06-02T11:37:20.063Z,51.10
2018-06-02T11:39:49.825Z,52.10
2018-06-02T11:42:18.397Z,52.00
2018-06-02T11:44:47.470Z,50.90
2018-06-02T11:47:16.197Z,49.40
2018-06-02T11:49:46.412Z,50.80
2018-06-02T11:52:15.828Z,50.90
2018-06-02T11:54:44.740Z,50.10
2018-06-02T11:57:13.548Z,50.70
2018-06-02T11:59:42.964Z,51.90
2018-06-02T12:02:13.216Z,48.30
2018-06-02T12:04:44.360Z,48.10
2018-06-02T12:07:13.089Z,48.60
2018-06-02T12:09:42.165Z,47.10
2018-06-02T12:12:12.348Z,47.50
2018-06-02T12:14:40.952Z,47.40
2018-06-02T12:17:11.075Z,47.70
2018-06-02T12:19:40.109Z,49.20
2018-06-02T12:22:09.846Z,49.60
2018-06-02T12:24:38.542Z,48.80
2018-06-02T12:27:08.280Z,47.30
2018-06-02T12:29:38.754Z,47.40
2018-06-02T12:32:08.241Z,48.40
2018-06-02T12:34:37.677Z,47.20
2018-06-02T12:37:07.471Z,45.60
2018-06-02T12:39:38.150Z,43.70
2018-06-02T12:42:08.220Z,43.60
2018-06-02T12:44:37.217Z,42.20
2018-06-02T12:47:06.073Z,40.90
2018-06-02T12:49:36.257Z,41.10
2018-06-02T12:52:06.610Z,44.50
2018-06-02T12:54:37.435Z,46.10
2018-06-02T12:57:07.713Z,46.00
2018-06-02T12:59:38.231Z,46.30
2018-06-02T13:02:09.201Z,46.10
2018-06-02T13:04:38.885Z,43.70
2018-06-02T13:07:10.245Z,41.90
2018-06-02T13:09:39.751Z,41.20
2018-06-02T13:12:09.653Z,41.40
2018-06-02T13:14:38.642Z,40.80
2018-06-02T13:17:07.503Z,42.20
2018-06-02T13:19:37.680Z,43.00
2018-06-02T13:22:09.523Z,44.90
2018-06-02T13:24:39.375Z,44.80
2018-06-02T13:27:09.062Z,41.60
2018-06-02T13:29:38.893Z,41.60
2018-06-02T13:32:08.150Z,42.10
2018-06-02T13:34:37.900Z,42.40
2018-06-02T13:37:06.726Z,42.90
2018-06-02T13:39:37.093Z,42.10
2018-06-02T13:42:07.189Z,41.70
2018-06-02T13:44:37.046Z,41.40
2018-06-02T13:47:07.353Z,40.60
2018-06-02T13:49:36.836Z,39.70
2018-06-02T13:52:07.336Z,42.00
2018-06-02T13:54:38.387Z,41.30
2018-06-02T13:57:08.294Z,41.20
2018-06-02T13:59:38.016Z,40.60
2018-06-02T14:02:07.689Z,41.20
2018-06-02T14:04:37.385Z,41.80
2018-06-02T14:07:06.314Z,41.80
2018-06-02T14:09:35.663Z,41.90
2018-06-02T14:12:06.180Z,41.10
2018-06-02T14:14:35.322Z,40.60
2018-06-02T14:17:04.109Z,40.30
2018-06-02T14:19:33.916Z,41.50
2018-06-02T14:22:02.669Z,40.80
2018-06-02T14:24:31.563Z,44.20
2018-06-02T14:27:00.432Z,44.00
2018-06-02T14:29:29.198Z,45.60
2018-06-02T14:31:58.429Z,44.50
2018-06-02T14:34:28.350Z,44.40
2018-06-02T14:36:57.283Z,46.10
2018-06-02T14:39:27.261Z,44.60
2018-06-02T14:41:58.184Z,43.80
2018-06-02T14:44:27.562Z,44.40
2018-06-02T14:46:56.582Z,42.10
2018-06-02T14:49:26.178Z,41.80
2018-06-02T14:51:56.801Z,45.60
2018-06-02T14:54:26.457Z,45.60
2018-06-02T14:56:57.542Z,46.30
2018-06-02T14:59:27.903Z,48.90
2018-06-02T15:01:59.814Z,50.40
2018-06-02T15:04:32.218Z,50.30
2018-06-02T15:07:02.889Z,50.20
2018-06-02T15:09:32.967Z,51.50
2018-06-02T15:12:03.066Z,53.30
2018-06-02T15:14:33.719Z,53.10
2018-06-02T15:17:03.968Z,51.40
2018-06-02T15:19:32.757Z,51.40
2018-06-02T15:22:02.495Z,52.70
2018-06-02T15:24:32.764Z,53.60
2018-06-02T15:27:02.479Z,53.50
2018-06-02T15:29:33.907Z,53.10
2018-06-02T15:32:03.501Z,52.30
2018-06-02T15:34:32.349Z,52.20
2018-06-02T15:37:01.325Z,53.10
2018-06-02T15:39:31.214Z,52.10
2018-06-02T15:42:01.909Z,50.70
2018-06-02T15:44:30.925Z,50.70
2018-06-02T15:46:59.720Z,50.90
2018-06-02T15:49:28.540Z,50.70
2018-06-02T15:51:58.076Z,50.40
2018-06-02T15:54:28.047Z,51.10
2018-06-02T15:56:57.815Z,53.60
2018-06-02T15:59:26.616Z,53.70
2018-06-02T16:01:56.198Z,55.60
2018-06-02T16:04:25.096Z,55.60
2018-06-02T16:06:54.961Z,56.80
2018-06-02T16:09:24.591Z,58.70
2018-06-02T16:11:54.533Z,61.80
2018-06-02T16:14:24.726Z,64.70
2018-06-02T16:16:55.116Z,68.00
2018-06-02T16:19:26.241Z,68.00
2018-06-02T16:21:56.632Z,70.90
2018-06-02T16:24:25.983Z,70.00
2018-06-02T16:26:55.947Z,70.40
2018-06-02T16:29:24.756Z,70.50
2018-06-02T16:31:53.665Z,71.10
2018-06-02T16:34:23.612Z,71.10
2018-06-02T16:36:52.245Z,71.60
2018-06-02T16:39:20.917Z,75.10
2018-06-02T16:41:49.847Z,75.90
2018-06-02T16:44:18.645Z,78.40
2018-06-02T16:46:48.381Z,79.50
2018-06-02T16:49:19.181Z,81.70
2018-06-02T16:51:48.716Z,82.40
2018-06-02T16:54:18.093Z,83.60
2018-06-02T16:56:46.890Z,83.50
2018-06-02T16:59:15.679Z,84.30
2018-06-02T17:01:44.382Z,85.80
2018-06-02T17:04:13.504Z,87.30
2018-06-02T17:06:42.228Z,87.50
2018-06-02T17:09:11.040Z,86.50
2018-06-02T17:11:39.741Z,86.10
2018-06-02T17:14:08.483Z,86.00
2018-06-02T17:16:38.391Z,85.40
2018-06-02T17:19:08.072Z,85.30
2018-06-02T17:21:36.949Z,83.80
2018-06-02T17:24:06.051Z,84.10
2018-06-02T17:26:34.670Z,84.20
2018-06-02T17:29:03.369Z,86.00
2018-06-02T17:31:32.176Z,85.90
2018-06-02T17:34:01.290Z,87.40
2018-06-02T17:36:30.187Z,87.70
2018-06-02T17:38:59.896Z,90.60
2018-06-02T17:41:29.411Z,91.80
2018-06-02T17:43:58.385Z,91.90
2018-06-02T17:46:27.142Z,92.90
2018-06-02T17:48:58.011Z,92.50
2018-06-02T17:51:28.476Z,92.50
2018-06-02T17:53:57.509Z,92.50
2018-06-02T17:56:26.420Z,92.60
2018-06-02T17:58:55.221Z,92.60
2018-06-02T18:01:24.067Z,92.40
2018-06-02T18:03:53.286Z,93.40
2018-06-02T18:06:22.609Z,93.50
2018-06-02T18:08:52.353Z,93.60
2018-06-02T18:11:21.425Z,94.70
2018-06-02T18:13:50.362Z,95.40
2018-06-02T18:16:20.290Z,95.50
2018-06-02T18:18:50.857Z,95.20
2018-06-02T18:21:21.110Z,95.20
2018-06-02T18:23:52.287Z,95.20
2018-06-02T18:26:23.071Z,95.50
2018-06-02T18:28:53.234Z,95.30
2018-06-02T18:31:22.239Z,95.50
2018-06-02T18:33:51.776Z,95.80
2018-06-02T18:36:20.697Z,96.20
2018-06-02T18:38:49.736Z,96.30
2018-06-02T18:41:19.895Z,97.60
2018-06-02T18:43:50.202Z,97.30
2018-06-02T18:46:19.224Z,97.40
2018-06-02T18:48:48.208Z,98.60
2018-06-02T18:51:17.845Z,99.80
2018-06-02T18:53:46.826Z,99.90
2018-06-02T18:56:15.847Z,99.90
2018-06-02T18:58:44.575Z,99.90
2018-06-02T19:01:13.526Z,99.90
2018-06-02T19:03:43.950Z,99.90
2018-06-02T19:06:12.846Z,99.90
2018-06-02T19:08:42.929Z,99.90
2018-06-02T19:11:12.802Z,99.90
2018-06-02T19:13:42.278Z,99.90
2018-06-02T19:16:11.329Z,99.90
2018-06-02T19:18:41.472Z,99.90
2018-06-02T19:21:10.488Z,99.90
2018-06-02T19:23:40.609Z,99.90
2018-06-02T19:26:10.453Z,99.90
2018-06-02T19:28:41.005Z,99.90
2018-06-02T19:31:09.879Z,99.90
2018-06-02T19:33:38.544Z,99.90
2018-06-02T19:36:08.429Z,99.90
2018-06-02T19:38:38.074Z,99.90
2018-06-02T19:41:08.655Z,99.90
2018-06-02T19:43:37.897Z,99.90
2018-06-02T19:46:06.563Z,99.90
2018-06-02T19:48:36.308Z,99.90
2018-06-02T19:51:05.838Z,99.90
2018-06-02T19:53:35.044Z,99.90
2018-06-02T19:56:03.896Z,99.90
2018-06-02T19:58:33.519Z,99.90
2018-06-02T20:01:02.240Z,99.90
2018-06-02T20:03:31.747Z,99.90
2018-06-02T20:06:01.071Z,99.90
2018-06-02T20:08:30.435Z,99.90
2018-06-02T20:10:59.590Z,99.90
2018-06-02T20:13:28.557Z,99.90
2018-06-02T20:15:57.551Z,99.90
2018-06-02T20:18:26.559Z,99.90
2018-06-02T20:20:55.540Z,99.90
2018-06-02T20:23:25.270Z,99.90
2018-06-02T20:25:55.028Z,99.90
2018-06-02T20:28:24.158Z,99.90
2018-06-02T20:30:53.359Z,99.90
2018-06-02T20:33:22.348Z,99.90
2018-06-02T20:35:52.862Z,99.90
2018-06-02T20:38:22.770Z,99.90
2018-06-02T20:40:51.580Z,99.90
2018-06-02T20:43:20.287Z,99.90
2018-06-02T20:45:49.399Z,99.90
2018-06-02T20:48:19.127Z,99.90
2018-06-02T20:50:48.391Z,99.90
2018-06-02T20:53:18.614Z,99.90
2018-06-02T20:55:48.767Z,99.90
2018-06-02T20:58:17.749Z,99.90
2018-06-02T21:00:46.866Z,99.90
2018-06-02T21:03:16.151Z,99.90
2018-06-02T21:05:46.965Z,99.90
2018-06-02T21:08:16.719Z,99.90
2018-06-02T21:10:45.640Z,99.90
2018-06-02T21:13:16.657Z,99.90
2018-06-02T21:15:45.518Z,99.90
2018-06-02T21:18:15.733Z,99.90
2018-06-02T21:20:46.022Z,99.90
2018-06-02T21:23:16.179Z,99.90
2018-06-02T21:25:44.897Z,99.90
2018-06-02T21:28:14.897Z,99.90
2018-06-02T21:30:46.233Z,99.90
2018-06-02T21:33:15.012Z,99.90
2018-06-02T21:35:45.193Z,99.90
2018-06-02T21:38:14.161Z,99.90
2018-06-02T21:40:43.302Z,99.90
2018-06-02T21:43:12.989Z,99.90
2018-06-02T21:45:41.807Z,99.90
2018-06-02T21:48:11.501Z,99.90
2018-06-02T21:50:40.973Z,99.90
2018-06-02T21:53:09.992Z,99.90
2018-06-02T21:55:39.212Z,99.90
2018-06-02T21:58:09.329Z,99.90
2018-06-02T22:00:38.781Z,99.90
2018-06-02T22:03:08.494Z,99.90
2018-06-02T22:05:38.513Z,99.90
2018-06-02T22:08:08.017Z,99.90
2018-06-02T22:10:38.924Z,99.90
2018-06-02T22:13:07.939Z,99.90
2018-06-02T22:15:36.879Z,99.90
2018-06-02T22:18:06.858Z,99.90
2018-06-02T22:20:36.517Z,99.90
2018-06-02T22:23:06.545Z,99.90
2018-06-02T22:25:36.773Z,99.90
2018-06-02T22:28:06.795Z,99.90
2018-06-02T22:30:36.450Z,99.90
2018-06-02T22:33:05.167Z,99.90
2018-06-02T22:35:34.898Z,99.90
2018-06-02T22:38:04.401Z,99.90
2018-06-02T22:40:34.259Z,99.90
2018-06-02T22:43:04.698Z,99.90
2018-06-02T22:45:33.466Z,99.90
2018-06-02T22:48:03.865Z,99.90
2018-06-02T22:50:33.965Z,99.90
2018-06-02T22:53:04.162Z,99.90
2018-06-02T22:55:33.037Z,99.90
2018-06-02T22:58:02.010Z,99.90
2018-06-02T23:00:31.201Z,99.90
2018-06-02T23:03:01.580Z,99.90
2018-06-02T23:05:31.472Z,99.90
2018-06-02T23:08:00.889Z,99.90
2018-06-02T23:10:30.525Z,99.90
2018-06-02T23:12:59.497Z,99.90
2018-06-02T23:15:28.312Z,99.90
2018-06-02T23:17:58.618Z,99.90
2018-06-02T23:20:28.485Z,99.90
2018-06-02T23:22:58.357Z,99.90
2018-06-02T23:25:28.189Z,99.90
2018-06-02T23:27:56.943Z,99.90
2018-06-02T23:30:25.795Z,99.90
2018-06-02T23:32:54.525Z,99.90
2018-06-02T23:35:23.336Z,99.90
2018-06-02T23:37:52.067Z,99.90
2018-06-02T23:40:20.854Z,99.90
2018-06-02T23:42:49.860Z,99.90
2018-06-02T23:45:18.840Z,99.90
2018-06-02T23:47:49.053Z,99.90
2018-06-02T23:50:18.443Z,99.90
2018-06-02T23:52:47.250Z,99.90
2018-06-02T23:55:15.953Z,99.90
2018-06-02T23:57:44.509Z,99.90
